Time;durP1;ratioP1;P1;durP2;ratioP2;P2;SDS_P1;SDS_P2;PMS_P1;PMS_P2;Temp;Humidity;BMP_temperature;BMP_pressure;BME280_temperature;BME280_humidity;BME280_pressure;Samples;Min_cycle;Max_cycle;Signal;HPM_P1;HPM_P2
2021/03/04 12:56:59;;;;;;;13.70;5.70;;;;;;;;;;5163286;27;20107;-77
2021/03/04 12:59:25;;;;;;;13.95;5.85;;;;;;;;;;5130468;28;20031;-79
2021/03/04 13:01:52;;;;;;;14.00;5.13;;;;;;;;;;5131329;28;20045;-78
2021/03/04 13:04:18;;;;;;;13.65;4.50;;;;;;;;;;5131672;28;20023;-79
2021/03/04 13:06:44;;;;;;;17.63;5.72;;;;;;;;;;5129764;27;20024;-78
2021/03/04 13:09:11;;;;;;;22.80;5.90;;;;;;;;;;5129626;27;20015;-78
2021/03/04 13:11:38;;;;;;;15.43;5.57;;;;;;;;;;5130066;27;20395;-79
2021/03/04 13:14:05;;;;;;;12.52;4.97;;;;;;;;;;5129709;27;20023;-79
2021/03/04 13:16:31;;;;;;;16.25;5.53;;;;;;;;;;5130985;28;20016;-79
2021/03/04 13:18:58;;;;;;;16.00;6.07;;;;;;;;;;5099726;28;20031;-79
2021/03/04 13:21:24;;;;;;;17.27;5.38;;;;;;;;;;5106933;27;20019;-79
2021/03/04 13:23:50;;;;;;;14.32;5.40;;;;;;;;;;5127412;27;20027;-79
2021/03/04 13:26:16;;;;;;;18.55;5.72;;;;;;;;;;5126467;28;20023;-79
2021/03/04 13:28:46;;;;;;;12.40;5.57;;;;;;;;;;5129491;28;20110;-79
2021/03/04 13:31:12;;;;;;;15.63;5.15;;;;;;;;;;5132033;27;20479;-80
2021/03/04 13:33:38;;;;;;;19.50;6.03;;;;;;;;;;5126940;27;20095;-79
2021/03/04 13:36:05;;;;;;;11.73;5.03;;;;;;;;;;5131836;28;20072;-79
2021/03/04 13:38:31;;;;;;;11.00;4.72;;;;;;;;;;5131764;27;20103;-78
2021/03/04 13:40:57;;;;;;;13.95;5.43;;;;;;;;;;5128997;27;20024;-78
2021/03/04 13:43:25;;;;;;;11.45;4.82;;;;;;;;;;5126386;27;20029;-77
2021/03/04 13:45:52;;;;;;;18.15;6.00;;;;;;;;;;5132711;27;20078;-79
2021/03/04 13:48:18;;;;;;;13.68;5.63;;;;;;;;;;5128912;27;20111;-77
2021/03/04 13:50:44;;;;;;;15.48;6.28;;;;;;;;;;5128162;28;20057;-78
2021/03/04 13:53:10;;;;;;;15.07;6.55;;;;;;;;;;5126795;27;20048;-80
2021/03/04 13:55:36;;;;;;;17.50;7.38;;;;;;;;;;5132343;27;20087;-79
2021/03/04 13:58:02;;;;;;;15.10;6.30;;;;;;;;;;5133963;27;20053;-79
2021/03/04 14:00:28;;;;;;;16.83;6.70;;;;;;;;;;5122975;28;20023;-78
2021/03/04 14:02:54;;;;;;;11.60;6.30;;;;;;;;;;5127595;28;20028;-79
2021/03/04 14:05:20;;;;;;;14.13;5.55;;;;;;;;;;5128103;28;20107;-79
2021/03/04 14:07:46;;;;;;;14.60;6.53;;;;;;;;;;5119747;27;20032;-79
2021/03/04 14:10:12;;;;;;;16.23;6.18;;;;;;;;;;5100510;28;20073;-78
2021/03/04 14:12:38;;;;;;;15.05;5.47;;;;;;;;;;5114071;28;20059;-78
2021/03/04 14:15:05;;;;;;;17.02;6.03;;;;;;;;;;5110721;28;20475;-79
2021/03/04 14:17:31;;;;;;;13.02;5.13;;;;;;;;;;5100494;28;20369;-79
2021/03/04 14:19:58;;;;;;;12.20;5.25;;;;;;;;;;5106907;28;20365;-79
2021/03/04 14:22:24;;;;;;;16.00;4.93;;;;;;;;;;5113269;28;20023;-80
2021/03/04 14:24:51;;;;;;;12.05;5.18;;;;;;;;;;5115434;28;20043;-79
2021/03/04 14:27:17;;;;;;;14.88;5.13;;;;;;;;;;5118420;28;20020;-79
2021/03/04 14:29:43;;;;;;;13.63;4.68;;;;;;;;;;5131745;28;20046;-78
2021/03/04 14:32:09;;;;;;;12.90;5.22;;;;;;;;;;5130206;28;20066;-78
2021/03/04 14:34:35;;;;;;;14.07;4.60;;;;;;;;;;5132835;28;20031;-79
2021/03/04 14:37:01;;;;;;;10.00;5.15;;;;;;;;;;5129890;28;20023;-78
2021/03/04 14:39:27;;;;;;;16.55;5.28;;;;;;;;;;5117589;28;20028;-79
2021/03/04 14:41:54;;;;;;;16.60;5.38;;;;;;;;;;5115971;28;20024;-79
2021/03/04 14:44:20;;;;;;;11.90;4.20;;;;;;;;;;5116201;28;20020;-79
2021/03/04 14:46:46;;;;;;;16.02;4.47;;;;;;;;;;5090647;28;20042;-79
2021/03/04 14:49:12;;;;;;;10.00;3.75;;;;;;;;;;5116065;28;20047;-78
2021/03/04 14:51:38;;;;;;;12.60;3.80;;;;;;;;;;5114920;28;20028;-79
2021/03/04 14:54:04;;;;;;;12.95;4.07;;;;;;;;;;5112920;28;20097;-78
2021/03/04 14:56:30;;;;;;;12.93;4.45;;;;;;;;;;5103261;28;20157;-78
2021/03/04 14:58:56;;;;;;;12.88;4.47;;;;;;;;;;5121072;28;20023;-79
2021/03/04 15:01:22;;;;;;;12.07;4.57;;;;;;;;;;5116630;28;20028;-78
2021/03/04 15:03:48;;;;;;;15.07;4.25;;;;;;;;;;5114063;28;20524;-78
2021/03/04 15:06:15;;;;;;;9.35;3.50;;;;;;;;;;5114460;28;20035;-78
2021/03/04 15:08:42;;;;;;;13.23;4.05;;;;;;;;;;5105602;28;20458;-78
2021/03/04 15:11:08;;;;;;;11.02;4.40;;;;;;;;;;5109627;28;20032;-78
2021/03/04 15:13:34;;;;;;;14.00;4.78;;;;;;;;;;5113342;28;20027;-79
2021/03/04 15:16:01;;;;;;;13.48;4.97;;;;;;;;;;5114910;28;20038;-79
2021/03/04 15:18:27;;;;;;;12.82;5.53;;;;;;;;;;5112427;28;20011;-78
2021/03/04 15:20:53;;;;;;;15.52;4.88;;;;;;;;;;5112376;28;21230;-79
2021/03/04 15:23:19;;;;;;;15.95;5.97;;;;;;;;;;5108049;28;20016;-79
2021/03/04 15:25:45;;;;;;;14.07;5.45;;;;;;;;;;5114464;28;20073;-79
2021/03/04 15:28:11;;;;;;;16.23;6.38;;;;;;;;;;5113986;28;20036;-79
2021/03/04 15:30:37;;;;;;;16.63;7.03;;;;;;;;;;5113042;28;20031;-79
2021/03/04 15:33:04;;;;;;;14.57;6.18;;;19.30;78.20;;;;;;5112500;28;20020;-80
2021/03/04 15:35:30;;;;;;;15.18;6.63;;;17.90;85.40;;;;;;5086280;28;20035;-79
2021/03/04 15:37:56;;;;;;;15.52;6.38;;;18.20;83.30;;;;;;5112661;28;20095;-79
2021/03/04 15:40:22;;;;;;;26.27;6.70;;;18.10;84.00;;;;;;5114272;28;20051;-79
2021/03/04 15:42:48;;;;;;;12.18;6.18;;;17.20;85.60;;;;;;5114493;28;20061;-79
2021/03/04 15:45:13;;;;;;;14.70;6.03;;;16.40;89.30;;;;;;5112457;28;20500;-79
2021/03/04 15:47:39;;;;;;;14.07;6.50;;;16.00;89.80;;;;;;5116285;28;20101;-79
2021/03/04 15:50:06;;;;;;;18.13;6.72;;;15.90;90.50;;;;;;5113276;28;20023;-79
2021/03/04 15:52:31;;;;;;;13.23;6.65;;;15.10;91.70;;;;;;5106645;28;20030;-78
2021/03/04 15:54:57;;;;;;;13.68;6.65;;;14.60;93.10;;;;;;5110915;28;20037;-78
2021/03/04 15:57:23;;;;;;;15.95;6.20;;;15.30;94.60;;;;;;5110640;28;20468;-78
2021/03/04 15:59:48;;;;;;;16.85;6.35;;;14.00;95.60;;;;;;5112710;28;20024;-78
2021/03/04 16:02:14;;;;;;;12.23;6.18;;;14.40;96.20;;;;;;5108312;28;20020;-79
2021/03/04 16:04:39;;;;;;;17.13;5.70;;;14.10;96.40;;;;;;5111176;28;20452;-79
2021/03/04 16:07:05;;;;;;;13.82;6.55;;;14.00;97.10;;;;;;5113715;28;20019;-79
2021/03/04 16:09:31;;;;;;;20.85;6.60;;;14.30;97.40;;;;;;5112389;28;20043;-78
2021/03/04 16:11:57;;;;;;;13.25;5.70;;;14.10;97.50;;;;;;5107927;28;20019;-79
2021/03/04 16:14:23;;;;;;;15.38;6.30;;;14.00;98.00;;;;;;5110536;28;20102;-78
2021/03/04 16:16:48;;;;;;;15.10;6.53;;;14.90;98.80;;;;;;5113427;28;20024;-76
2021/03/04 16:19:15;;;;;;;17.20;6.78;;;13.90;99.10;;;;;;5112012;28;20031;-75
2021/03/04 16:21:40;;;;;;;13.75;5.80;;;14.10;99.60;;;;;;5116909;28;20038;-76
2021/03/04 16:24:06;;;;;;;16.83;5.50;;;13.60;99.90;;;;;;5095578;28;20468;-77
2021/03/04 16:26:32;;;;;;;16.45;4.90;;;13.50;99.90;;;;;;5103481;28;20079;-75
2021/03/04 16:28:58;;;;;;;15.75;4.72;;;13.50;99.90;;;;;;5077644;28;20027;-76
2021/03/04 16:31:24;;;;;;;16.00;4.90;;;13.60;99.90;;;;;;5104298;28;20139;-76
2021/03/04 16:33:50;;;;;;;13.30;6.13;;;13.60;99.90;;;;;;5111419;28;20030;-75
2021/03/04 16:36:16;;;;;;;13.32;4.57;;;14.10;99.90;;;;;;5110762;28;20038;-76
2021/03/04 16:38:43;;;;;;;13.75;4.85;;;13.40;99.90;;;;;;5111128;28;20476;-76
2021/03/04 16:41:08;;;;;;;12.20;5.22;;;13.40;99.90;;;;;;5110738;28;20045;-76
2021/03/04 16:43:34;;;;;;;16.90;5.05;;;13.80;99.90;;;;;;5110475;28;20035;-75
2021/03/04 16:46:00;;;;;;;24.42;6.05;;;14.10;99.90;;;;;;5108889;28;20031;-75
2021/03/04 16:48:26;;;;;;;13.85;5.07;;;13.00;99.90;;;;;;5109312;28;20025;-76
2021/03/04 16:50:52;;;;;;;12.77;5.40;;;13.20;99.90;;;;;;5111475;28;20128;-76
2021/03/04 16:53:17;;;;;;;13.48;5.35;;;13.90;99.90;;;;;;5110570;28;20038;-76
2021/03/04 16:55:43;;;;;;;11.48;5.10;;;14.00;99.90;;;;;;5111309;28;20042;-76
2021/03/04 16:58:09;;;;;;;15.80;5.93;;;12.80;99.90;;;;;;5104865;28;20016;-76
2021/03/04 17:00:35;;;;;;;15.77;6.35;;;13.50;99.90;;;;;;5111603;28;20031;-77
2021/03/04 17:03:01;;;;;;;12.45;5.20;;;13.00;99.90;;;;;;5107391;28;20023;-77
2021/03/04 17:05:27;;;;;;;15.82;6.00;;;13.00;99.90;;;;;;5111310;28;20102;-77
2021/03/04 17:07:52;;;;;;;13.05;5.45;;;13.00;99.90;;;;;;5111208;28;20103;-77
2021/03/04 17:10:20;;;;;;;16.83;5.88;;;12.80;99.90;;;;;;5111399;28;20027;-77
2021/03/04 17:12:48;;;;;;;13.88;5.45;;;12.70;99.90;;;;;;5110529;28;20087;-77
2021/03/04 17:15:15;;;;;;;14.30;6.03;;;13.50;99.90;;;;;;5109853;28;20047;-76
2021/03/04 17:17:41;;;;;;;13.10;5.63;;;12.50;99.90;;;;;;5108526;28;20050;-76
2021/03/04 17:20:07;;;;;;;13.98;6.07;;;12.50;99.90;;;;;;5110056;28;20058;-76
2021/03/04 17:22:33;;;;;;;16.23;6.57;;;12.30;99.90;;;;;;5110687;28;20158;-76
2021/03/04 17:24:59;;;;;;;15.10;6.75;;;13.40;99.90;;;;;;5111893;28;20019;-76
2021/03/04 17:27:25;;;;;;;16.83;6.88;;;13.10;99.90;;;;;;5111814;28;20084;-78
2021/03/04 17:29:50;;;;;;;18.15;6.80;;;12.20;99.90;;;;;;5097845;28;20040;-76
2021/03/04 17:32:17;;;;;;;18.45;6.65;;;13.20;99.90;;;;;;5103508;28;20031;-75
2021/03/04 17:34:42;;;;;;;12.75;6.65;;;12.20;99.90;;;;;;5110958;28;20775;-76
2021/03/04 17:37:08;;;;;;;16.85;7.82;;;12.30;99.90;;;;;;5099708;28;20157;-77
2021/03/04 17:39:34;;;;;;;18.13;7.28;;;12.20;99.90;;;;;;5102065;28;20028;-78
2021/03/04 17:42:00;;;;;;;17.23;7.07;;;12.20;99.90;;;;;;5104299;28;20027;-76
2021/03/04 17:44:25;;;;;;;16.15;6.60;;;12.30;99.90;;;;;;5114999;28;20028;-75
2021/03/04 17:46:51;;;;;;;19.38;7.28;;;13.70;99.90;;;;;;5115073;28;20104;-74
2021/03/04 17:49:16;;;;;;;15.15;7.60;;;12.50;99.90;;;;;;5113096;28;20031;-76
2021/03/04 17:51:42;;;;;;;16.92;7.72;;;12.10;99.90;;;;;;5106136;28;20043;-75
2021/03/04 17:54:08;;;;;;;13.98;5.25;;;;;;;;;;5112492;28;20023;-76
2021/03/04 17:56:35;;;;;;;9.85;4.85;;;;;;;;;;5114362;28;20071;-76
2021/03/04 17:59:01;;;;;;;7.47;4.22;;;;;;;;;;5114667;28;20605;-76
2021/03/04 18:01:27;;;;;;;9.57;5.30;;;;;;;;;;5114687;28;20028;-75
2021/03/04 18:03:53;;;;;;;13.52;7.20;;;;;;;;;;5114098;28;20024;-74
2021/03/04 18:06:19;;;;;;;8.57;3.53;;;;;;;;;;5115194;28;20053;-74
2021/03/04 18:08:46;;;;;;;11.02;4.20;;;;;;;;;;5112951;28;20084;-74
2021/03/04 18:11:12;;;;;;;4.53;3.00;;;;;;;;;;5114905;28;20027;-75
2021/03/04 18:13:39;;;;;;;4.70;2.63;;;;;;;;;;5113206;28;20026;-74
2021/03/04 18:16:06;;;;;;;4.82;2.70;;;;;;;;;;5114439;28;20051;-73
2021/03/04 18:18:32;;;;;;;6.20;2.90;;;;;;;;;;5114427;28;20024;-73
2021/03/04 18:20:58;;;;;;;9.65;3.30;;;;;;;;;;5112878;28;20488;-74
2021/03/04 18:23:24;;;;;;;11.98;3.30;;;;;;;;;;5108130;28;20030;-73
2021/03/04 18:25:51;;;;;;;4.82;2.95;;;;;;;;;;5113991;28;20407;-74
2021/03/04 18:28:17;;;;;;;5.82;3.13;;;;;;;;;;5113891;28;20149;-74
2021/03/04 18:30:43;;;;;;;7.25;3.67;;;;;;;;;;5113425;28;20072;-74
2021/03/04 18:33:09;;;;;;;7.35;3.40;;;;;;;;;;5113508;28;20028;-75
2021/03/04 18:35:35;;;;;;;8.32;3.58;;;;;;;;;;5113856;28;20023;-75
2021/03/04 18:38:01;;;;;;;9.65;3.67;;;;;;;;;;5113645;27;20034;-73
2021/03/04 18:40:28;;;;;;;9.68;3.78;;;;;;;;;;5113546;28;20111;-74
2021/03/04 18:42:55;;;;;;;8.60;3.58;;;;;;;;;;5111166;28;20016;-77
2021/03/04 18:45:22;;;;;;;12.35;4.20;;;;;;;;;;5087833;28;20412;-75
2021/03/04 18:47:48;;;;;;;6.32;3.70;;;;;;;;;;5113703;28;20027;-75
2021/03/04 18:50:15;;;;;;;8.48;3.70;;;;;;;;;;5113416;28;20721;-74
2021/03/04 18:52:41;;;;;;;6.95;3.67;;;;;;;;;;5111635;28;20031;-75
